Time;durP1;ratioP1;P1;durP2;ratioP2;P2;SDS_P1;SDS_P2;PMS_P1;PMS_P2;Temp;Humidity;BMP_temperature;BMP_pressure;BME280_temperature;BME280_humidity;BME280_pressure;Samples;Min_cycle;Max_cycle;Signal;HPM_P1;HPM_P2
2023/03/25 00:04:28;;;;;;;13.30;8.30;;;;;;;11.61;75.47;97540.61;435237;1257;112073;-41
2023/03/25 00:14:36;;;;;;;12.00;8.10;;;;;;;11.64;75.81;97540.56;435268;1251;106856;-42
2023/03/25 00:24:42;;;;;;;8.20;6.30;;;;;;;11.62;75.83;97535.36;435345;1254;99245;-41
2023/03/25 00:34:50;;;;;;;13.40;6.50;;;;;;;11.48;75.86;97538.92;435293;1253;107041;-40
2023/03/25 00:44:57;;;;;;;12.90;8.70;;;;;;;11.15;75.81;97530.64;435403;1257;97949;-42
2023/03/25 00:55:06;;;;;;;10.50;7.00;;;;;;;10.85;75.94;97533.11;435325;1254;112957;-42
2023/03/25 01:05:13;;;;;;;7.80;4.40;;;;;;;10.60;75.84;97550.07;435243;1253;108114;-42
2023/03/25 01:15:21;;;;;;;5.80;4.20;;;;;;;10.41;75.86;97536.80;435357;1254;99321;-42
2023/03/25 01:25:29;;;;;;;6.60;4.20;;;;;;;10.24;75.73;97520.23;435495;1254;108419;-41
2023/03/25 01:35:36;;;;;;;7.70;5.30;;;;;;;9.99;75.58;97526.52;435436;1254;99326;-42
2023/03/25 02:06:04;;;;;;;5.90;4.30;;;;;;;9.72;75.40;97505.30;435315;1254;98682;-41
2023/03/25 02:26:35;;;;;;;6.40;3.90;;;;;;;9.73;75.42;97505.20;435324;1254;98010;-42
2023/03/25 02:47:15;;;;;;;8.80;5.10;;;;;;;9.61;75.50;97482.49;436119;1251;108001;-42
2023/03/25 02:57:27;;;;;;;6.10;4.60;;;;;;;9.58;75.47;97508.08;435195;1256;99230;-41
2023/03/25 03:07:40;;;;;;;10.60;5.00;;;;;;;9.61;75.57;97519.19;435249;1250;107988;-41
2023/03/25 03:18:00;;;;;;;9.10;5.10;;;;;;;9.64;75.63;97524.86;435377;1250;99245;-41
2023/03/25 03:28:16;;;;;;;11.20;6.40;;;;;;;9.54;75.57;97517.59;435244;1250;110434;-40
2023/03/25 03:38:26;;;;;;;12.80;7.50;;;;;;;9.40;75.52;97522.04;435126;1254;361448;-41
2023/03/25 03:48:37;;;;;;;11.60;5.00;;;;;;;9.34;75.46;97525.14;435433;1250;98691;-42
2023/03/25 03:58:47;;;;;;;8.50;5.60;;;;;;;9.31;75.45;97531.02;435245;1256;107527;-42
2023/03/25 04:19:04;;;;;;;12.80;8.90;;;;;;;9.40;75.65;97548.41;435267;1256;110856;-41
2023/03/25 04:29:12;;;;;;;8.30;5.40;;;;;;;9.30;75.40;97549.95;435425;1256;108397;-41
2023/03/25 04:49:27;;;;;;;7.50;4.40;;;;;;;9.01;75.30;97550.73;435284;1255;108096;-46
2023/03/25 05:09:40;;;;;;;8.70;5.50;;;;;;;8.85;75.31;97570.63;435339;1256;112030;-41
2023/03/25 05:19:50;;;;;;;11.20;6.00;;;;;;;8.82;75.50;97573.02;435242;1256;108170;-41
2023/03/25 05:40:06;;;;;;;7.60;4.00;;;;;;;8.82;75.92;97575.07;435483;1257;106807;-45
2023/03/25 06:00:26;;;;;;;10.90;7.70;;;;;;;9.98;76.00;97579.66;435458;1256;111456;-41
2023/03/25 06:10:33;;;;;;;12.90;8.40;;;;;;;10.28;75.71;97586.01;435258;1251;107334;-41
2023/03/25 06:20:40;;;;;;;14.80;9.50;;;;;;;10.19;75.62;97589.88;435325;1251;98040;-42
2023/03/25 06:30:47;;;;;;;13.70;8.00;;;;;;;10.14;75.71;97587.96;435293;1254;107662;-41
2023/03/25 06:40:55;;;;;;;12.00;7.40;;;;;;;10.34;75.93;97587.50;435295;1256;99230;-42
2023/03/25 06:51:02;;;;;;;12.90;7.50;;;;;;;11.48;75.76;97586.09;435216;1256;112862;-41
2023/03/25 07:01:10;;;;;;;8.80;6.10;;;;;;;11.67;75.22;97593.23;435145;1264;108537;-41
2023/03/25 07:11:21;;;;;;;9.90;6.90;;;;;;;12.50;75.00;97587.61;435427;1256;99208;-41
2023/03/25 07:21:28;;;;;;;8.50;5.00;;;;;;;14.04;73.96;97572.89;435373;1255;109436;-41
2023/03/25 07:31:35;;;;;;;7.70;4.00;;;;;;;14.81;71.88;97564.52;435337;1256;99211;-41
2023/03/25 07:51:49;;;;;;;5.50;3.70;;;;;;;14.34;70.17;97562.71;435251;1264;107358;-41
2023/03/25 08:01:56;;;;;;;6.50;4.40;;;;;;;14.44;69.89;97561.88;435458;1251;98037;-41
2023/03/25 08:12:03;;;;;;;5.00;3.90;;;;;;;14.97;68.79;97546.77;435323;1256;108530;-43
2023/03/25 08:32:17;;;;;;;6.00;2.60;;;;;;;15.70;65.26;97531.76;435324;1251;112091;-41
2023/03/25 08:42:24;;;;;;;6.40;2.30;;;;;;;16.26;64.33;97525.06;435325;1255;108725;-43
2023/03/25 08:52:31;;;;;;;8.90;2.60;;;;;;;16.85;63.30;97516.45;435780;1256;97991;-41
2023/03/25 09:02:39;;;;;;;2.70;1.80;;;;;;;16.97;61.72;97518.61;435171;1257;108257;-41
2023/03/25 09:12:47;;;;;;;6.60;2.90;;;;;;;16.57;61.34;97517.11;435347;1256;99308;-41
2023/03/25 09:22:54;;;;;;;5.30;2.50;;;;;;;17.05;60.13;97502.39;435213;1264;111513;-42
2023/03/25 09:33:02;;;;;;;7.40;2.80;;;;;;;17.37;58.99;97506.23;435302;1264;108387;-42
2023/03/25 09:43:10;;;;;;;6.50;2.80;;;;;;;17.80;57.70;97501.34;435132;1251;99221;-42
2023/03/25 09:53:15;;;;;;;9.40;4.70;;;;;;;17.76;56.55;97495.06;435313;1258;107798;-42
2023/03/25 10:03:28;;;;;;;4.80;3.20;;;;;;;16.78;55.24;97501.93;435373;1251;97993;-41
2023/03/25 10:13:36;;;;;;;4.70;1.80;;;;;;;15.72;53.82;97527.48;435335;1251;111114;-40
2023/03/25 10:23:41;;;;;;;5.30;3.20;;;;;;;14.66;57.64;97510.88;435345;1257;107120;-40
2023/03/25 10:33:50;;;;;;;3.70;2.10;;;;;;;14.88;59.99;97495.98;435380;1256;99276;-41
2023/03/25 10:43:57;;;;;;;4.10;2.00;;;;;;;14.71;60.14;97482.30;435272;1257;107734;-42
2023/03/25 10:54:05;;;;;;;3.50;1.60;;;;;;;14.89;61.06;97476.70;435177;1251;99214;-42
2023/03/25 11:04:17;;;;;;;4.70;1.10;;;;;;;15.30;60.51;97458.91;435442;1256;110196;-41
2023/03/25 11:14:22;;;;;;;2.40;1.10;;;;;;;15.70;59.16;97446.38;435355;1258;107295;-40
2023/03/25 11:44:43;;;;;;;3.60;1.30;;;;;;;16.23;54.04;97431.30;435225;1257;99256;-41
2023/03/25 11:54:53;;;;;;;5.00;1.00;;;;;;;15.37;53.16;97447.30;435296;1258;110972;-40
2023/03/25 12:04:57;;;;;;;6.80;1.30;;;;;;;15.14;53.56;97424.98;435310;1255;107509;-40
2023/03/25 12:15:06;;;;;;;4.20;0.60;;;;;;;16.02;51.51;97406.82;435412;1251;99218;-42
2023/03/25 12:25:16;;;;;;;6.00;1.40;;;;;;;16.25;49.79;97398.94;435345;1256;108260;-41
2023/03/25 12:35:28;;;;;;;2.30;0.90;;;;;;;16.21;50.09;97388.67;435256;1251;99218;-41
2023/03/25 12:45:43;;;;;;;4.20;1.90;;;;;;;15.90;49.74;97376.77;435327;1256;111555;-40
2023/03/25 12:55:59;;;;;;;1.90;0.80;;;;;;;15.80;50.10;97374.91;435330;1256;106440;-42
2023/03/25 13:06:06;;;;;;;3.90;1.20;;;;;;;15.39;49.64;97378.98;435277;1252;98004;-42
2023/03/25 13:16:18;;;;;;;4.30;1.30;;;;;;;15.16;50.35;97395.68;435317;1257;106345;-41
2023/03/25 13:26:28;;;;;;;2.90;1.20;;;;;;;15.09;51.24;97397.00;435278;1252;99221;-44
2023/03/25 13:36:34;;;;;;;4.10;0.90;;;;;;;14.98;51.68;97394.41;435268;1256;111842;-42
2023/03/25 13:46:40;;;;;;;1.40;0.70;;;;;;;15.07;50.74;97384.69;435388;1251;108098;-42
2023/03/25 13:57:06;;;;;;;3.50;0.90;;;;;;;14.80;49.77;97383.10;435727;1251;99253;-41
2023/03/25 14:07:47;;;;;;;2.40;1.20;;;;;;;14.57;49.76;97383.81;435262;1264;107117;-41
2023/03/25 14:17:56;;;;;;;4.20;0.80;;;;;;;13.96;49.58;97401.97;435279;1257;98571;-42
2023/03/25 14:28:04;;;;;;;1.60;0.70;;;;;;;13.59;49.91;97402.46;435329;1251;112884;-42
2023/03/25 14:38:48;;;;;;;1.90;1.00;;;;;;;13.56;50.38;97405.32;434989;1251;107592;-42
2023/03/25 14:59:22;;;;;;;1.70;0.90;;;;;;;13.30;51.29;97420.84;435247;1257;108997;-43
2023/03/25 15:09:31;;;;;;;2.50;1.00;;;;;;;12.60;51.80;97447.29;435221;1251;98309;-41
2023/03/25 15:20:21;;;;;;;6.40;0.70;;;;;;;12.11;52.55;97441.82;435420;1251;111253;-41
2023/03/25 15:30:41;;;;;;;1.20;1.00;;;;;;;11.94;53.19;97444.07;435186;1257;108545;-42
2023/03/25 15:40:54;;;;;;;4.20;1.30;;;;;;;12.16;53.76;97444.45;435013;1251;370561;-41
2023/03/25 15:51:11;;;;;;;2.60;0.80;;;;;;;12.54;53.49;97434.34;435249;1255;106660;-41
2023/03/25 16:01:19;;;;;;;4.10;1.50;;;;;;;12.10;53.92;97442.04;435396;1256;99218;-41
2023/03/25 16:21:31;;;;;;;2.00;0.80;;;;;;;11.42;55.57;97459.51;435261;1256;106788;-41
2023/03/25 16:41:45;;;;;;;2.30;1.20;;;;;;;10.87;56.77;97474.04;435276;1253;109421;-43
2023/03/25 16:51:53;;;;;;;3.40;2.50;;;;;;;10.58;57.34;97486.14;449490;1247;97953;-41
2023/03/25 17:02:03;;;;;;;1.60;1.30;;;;;;;10.38;57.83;97482.27;435554;1254;97985;-40
2023/03/25 17:12:17;;;;;;;23.40;16.40;;;;;;;10.11;58.07;97488.59;435381;1254;107707;-40
2023/03/25 17:22:27;;;;;;;29.40;13.80;;;;;;;9.82;58.24;97497.70;435352;1256;98401;-42
2023/03/25 17:32:34;;;;;;;;;;;;;;;9.61;58.84;97499.96;435205;1253;110929;-41
2023/03/25 17:42:42;;;;;;;19.90;9.50;;;;;;;9.37;59.02;97500.80;434998;1253;108612;-41
2023/03/25 17:52:49;;;;;;;35.30;18.00;;;;;;;9.13;59.70;97499.92;434882;1253;98835;-41
2023/03/25 18:02:56;;;;;;;21.90;9.40;;;;;;;8.98;60.07;97504.97;434921;1256;111799;-41
2023/03/25 18:13:04;;;;;;;11.10;6.40;;;;;;;8.95;60.40;97504.35;435179;1253;107453;-40
2023/03/25 18:23:11;;;;;;;16.70;8.60;;;;;;;8.84;60.89;97505.35;435318;1252;99231;-42
2023/03/25 18:33:19;;;;;;;12.20;6.80;;;;;;;8.78;61.15;97501.15;435390;1256;107867;-40
2023/03/25 18:43:26;;;;;;;10.60;5.00;;;;;;;8.73;61.86;97488.86;435230;1256;98053;-41
2023/03/25 18:53:34;;;;;;;7.70;4.50;;;;;;;8.49;61.61;97498.77;435184;1256;112529;-41
2023/03/25 19:03:42;;;;;;;8.30;4.40;;;;;;;8.23;62.12;97503.61;435174;1256;107265;-42
2023/03/25 19:13:49;;;;;;;11.70;5.90;;;;;;;8.11;62.36;97508.98;435182;1256;99237;-42
2023/03/25 19:23:55;;;;;;;11.80;7.70;;;;;;;7.95;62.48;97514.46;435319;1256;110810;-41
2023/03/25 19:34:02;;;;;;;19.30;10.90;;;;;;;7.89;62.74;97523.27;435009;1256;107212;-41
2023/03/25 19:44:09;;;;;;;36.60;19.00;;;;;;;7.80;63.06;97522.91;435195;1253;99858;-41
2023/03/25 19:54:15;;;;;;;50.20;24.50;;;;;;;7.72;63.46;97509.20;435066;1256;108841;-41
2023/03/25 20:04:22;;;;;;;38.40;19.50;;;;;;;7.49;63.65;97504.71;435194;1252;97981;-41
2023/03/25 20:14:29;;;;;;;38.30;16.80;;;;;;;7.36;64.05;97504.70;435166;1253;113669;-41
2023/03/25 20:24:37;;;;;;;22.50;12.30;;;;;;;7.35;64.39;97503.98;435110;1256;107908;-41
2023/03/25 20:34:44;;;;;;;24.00;12.60;;;;;;;7.38;64.68;97502.64;435289;1256;98015;-41
2023/03/25 20:44:50;;;;;;;18.50;9.10;;;;;;;7.44;65.07;97507.03;435186;1253;107861;-41
2023/03/25 20:54:58;;;;;;;17.10;7.90;;;;;;;7.40;65.57;97505.97;435243;1256;99745;-42
2023/03/25 21:05:04;;;;;;;19.40;8.60;;;;;;;7.29;66.18;97507.94;435076;1256;112093;-43
2023/03/25 21:15:11;;;;;;;11.40;7.10;;;;;;;7.24;66.40;97509.20;435223;1253;108323;-41
2023/03/25 21:25:19;;;;;;;12.90;6.20;;;;;;;7.21;66.39;97522.73;435328;1256;99349;-41
2023/03/25 21:45:34;;;;;;;13.30;6.50;;;;;;;7.17;66.49;97530.17;435146;1256;99208;-41
2023/03/25 21:55:43;;;;;;;11.40;5.80;;;;;;;7.02;66.67;97544.70;435192;1256;111267;-42
2023/03/25 22:05:49;;;;;;;;;;;;;;;6.87;66.78;97547.65;435211;1256;106538;-41
2023/03/25 22:15:56;;;;;;;20.80;9.50;;;;;;;6.68;66.94;97536.49;435161;1256;98732;-41
2023/03/25 22:26:04;;;;;;;19.90;9.60;;;;;;;6.62;67.39;97533.05;435144;1256;111851;-40
2023/03/25 22:36:14;;;;;;;8.90;4.60;;;;;;;6.69;67.41;97540.27;435215;1256;107536;-43
2023/03/25 23:06:35;;;;;;;7.70;4.40;;;;;;;6.77;68.15;97541.20;435181;1256;99203;-41
2023/03/25 23:16:42;;;;;;;9.70;5.60;;;;;;;6.76;68.45;97544.02;435292;1253;110456;-41
2023/03/25 23:26:50;;;;;;;7.60;4.50;;;;;;;6.87;68.36;97539.77;435026;1256;110898;-41
2023/03/25 23:36:57;;;;;;;11.30;4.80;;;;;;;6.84;68.47;97542.24;435071;1253;98810;-42
2023/03/25 23:57:10;;;;;;;9.30;4.80;;;;;;;6.83;68.66;97540.63;435155;1256;107514;-42
